»·PEaware :: N4868P KSNA-KBUR

N4868P :: KSNA-KBUR

FLIGHT INFORMATION

Flight Status: Arrived
Operator: Privately registered:
United States
More flights under this callsign
Pilot: Erik K. (18332)
Aircraft: CESSNA 172 SKYHAWK
(C172)
More flights by this aircraft type
Origin: KSNA John Wayne-Orange Co
United States
Destination: KBUR Bob Hope-Burbank
United States
More flights between these airports :: More routes between these airports
Route: +SLI V23 POPPR SMO SILEX
File this flight plan on PilotEdge
Remarks: I-3
Altitude:
(Current/Filed)
4,000ft
Speed:
(Current/Filed)
104kts
Departed: 29-Apr-18 01:43 PM
Arrived: 29-Apr-18 02:27 PM
Distance/Time
Traveled:
40nm/0:44
Distance/Time
To Go:
Arrived

Flight Plot

Page will automatically refresh every two minutes.


Map Options




Map Legend


Flown Route
Filed Route
Departure Airport
Arrival Airport
Navaid (VOR, NDB)
Fix

Horizontal Profiles

Position Reports

Time Latitude Longitude Heading Altitude Ground
Speed
29-Apr-18 13:27 33.678772 -117.862759 350 60ft 0kts
29-Apr-18 13:28 33.678772 -117.862759 350 60ft 0kts
29-Apr-18 13:29 33.678772 -117.862759 350 60ft 0kts
29-Apr-18 13:30 33.678772 -117.862759 350 60ft 0kts
29-Apr-18 13:31 33.678772 -117.862759 350 60ft 0kts
29-Apr-18 13:32 33.678772 -117.862759 350 60ft 0kts
29-Apr-18 13:33 33.678772 -117.862759 350 60ft 0kts
29-Apr-18 13:34 33.678772 -117.862759 350 60ft 0kts
29-Apr-18 13:35 33.678772 -117.862759 350 60ft 0kts
29-Apr-18 13:36 33.678772 -117.862759 350 60ft 0kts
29-Apr-18 13:37 33.678772 -117.862759 350 60ft 0kts
29-Apr-18 13:38 33.678772 -117.862759 350 60ft 0kts
29-Apr-18 13:39 33.679960 -117.863550 303 60ft 0kts
29-Apr-18 13:40 33.679960 -117.863550 303 60ft 0kts
29-Apr-18 13:41 33.680091 -117.863850 287 60ft 5kts
29-Apr-18 13:42 33.674248 -117.867818 206 170ft 79kts
29-Apr-18 13:43 33.659803 -117.885016 229 1253ft 73kts
29-Apr-18 13:44 33.646191 -117.907044 235 1878ft 104kts
29-Apr-18 13:45 33.630071 -117.935138 233 1921ft 101kts
29-Apr-18 13:46 33.613667 -117.961747 233 2395ft 101kts
29-Apr-18 13:47 33.598926 -117.987491 235 3144ft 100kts
29-Apr-18 13:49 33.596041 -118.017396 326 3760ft 102kts
29-Apr-18 13:50 33.618496 -118.037704 317 3767ft 97kts
29-Apr-18 13:51 33.639830 -118.062610 315 3888ft 114kts
29-Apr-18 13:52 33.662292 -118.089343 317 4002ft 112kts
29-Apr-18 13:52 33.682902 -118.110303 320 3958ft 118kts
29-Apr-18 13:53 33.705421 -118.139275 313 3868ft 122kts
29-Apr-18 13:54 33.729025 -118.166935 316 3853ft 118kts
29-Apr-18 13:55 33.753122 -118.193185 318 3853ft 117kts
29-Apr-18 13:56 33.777426 -118.218315 318 3938ft 112kts
29-Apr-18 13:57 33.801678 -118.243483 319 3945ft 117kts
29-Apr-18 13:58 33.826306 -118.268770 319 3945ft 117kts
29-Apr-18 14:00 33.855090 -118.298199 319 3945ft 117kts
29-Apr-18 14:00 33.875758 -118.319305 319 3945ft 117kts
29-Apr-18 14:01 33.900300 -118.344351 319 3945ft 117kts
29-Apr-18 14:02 33.925180 -118.369750 319 3945ft 117kts
29-Apr-18 14:03 33.949829 -118.394930 319 3945ft 117kts
29-Apr-18 14:04 33.974588 -118.420228 319 3945ft 117kts
29-Apr-18 14:05 33.999315 -118.445544 319 3945ft 117kts
29-Apr-18 14:06 34.022797 -118.472853 311 3945ft 117kts
29-Apr-18 14:07 34.044319 -118.502340 311 3961ft 116kts
29-Apr-18 14:08 34.065717 -118.531666 311 3963ft 117kts
29-Apr-18 14:09 34.087312 -118.561262 311 3963ft 117kts
29-Apr-18 14:10 34.107778 -118.589303 310 3963ft 117kts
29-Apr-18 14:11 34.125126 -118.622565 301 3963ft 117kts
29-Apr-18 14:12 34.141631 -118.655342 300 3750ft 128kts
29-Apr-18 14:13 34.160221 -118.692242 300 3463ft 123kts
29-Apr-18 14:14 34.178810 -118.725837 317 3435ft 117kts
29-Apr-18 14:15 34.201125 -118.709744 75 3472ft 115kts
29-Apr-18 14:16 34.201204 -118.669888 90 3409ft 121kts
29-Apr-18 14:17 34.199624 -118.630490 92 3115ft 109kts
29-Apr-18 14:18 34.199405 -118.593604 89 2968ft 106kts
29-Apr-18 14:19 34.200448 -118.558269 84 2964ft 105kts
29-Apr-18 14:20 34.199785 -118.523755 94 2934ft 107kts
29-Apr-18 14:21 34.198175 -118.488639 84 2638ft 99kts
29-Apr-18 14:22 34.198586 -118.457235 90 2074ft 93kts
29-Apr-18 14:23 34.198466 -118.425794 90 1720ft 94kts
29-Apr-18 14:24 34.198357 -118.394062 88 1271ft 94kts
29-Apr-18 14:25 34.197872 -118.365307 89 728ft 53kts
29-Apr-18 14:26 34.196261 -118.357650 133 707ft 11kts
29-Apr-18 14:27 34.196099 -118.357656 225 707ft 0kts

Navigation Log

Ident Type
Flight plan parsing failed, navigation log unavailable